createdAt,value
2017-06-08T00:02:13.894Z,2.95
2017-06-08T00:04:46.839Z,3.35
2017-06-08T00:07:20.399Z,3.30
2017-06-08T00:09:53.035Z,2.80
2017-06-08T00:12:26.080Z,3.83
2017-06-08T00:14:59.149Z,3.35
2017-06-08T00:17:31.980Z,3.20
2017-06-08T00:20:05.441Z,2.93
2017-06-08T00:22:38.130Z,2.97
2017-06-08T00:25:11.165Z,4.18
2017-06-08T00:27:43.363Z,3.40
2017-06-08T00:30:16.486Z,2.93
2017-06-08T00:32:49.026Z,3.33
2017-06-08T00:35:21.637Z,3.20
2017-06-08T00:37:53.983Z,3.80
2017-06-08T00:40:26.291Z,3.07
2017-06-08T00:43:00.332Z,2.80
2017-06-08T00:45:32.970Z,3.00
2017-06-08T00:48:06.404Z,3.15
2017-06-08T00:50:39.909Z,3.45
2017-06-08T00:53:12.595Z,2.87
2017-06-08T00:55:45.743Z,2.40
2017-06-08T00:58:18.523Z,3.45
2017-06-08T01:00:51.497Z,3.35
2017-06-08T01:03:24.372Z,2.70
2017-06-08T01:05:57.840Z,2.75
2017-06-08T01:08:31.320Z,3.10
2017-06-08T01:11:04.091Z,3.20
2017-06-08T01:13:36.924Z,3.55
2017-06-08T01:16:09.865Z,3.20
2017-06-08T01:18:42.616Z,3.00
2017-06-08T01:21:16.200Z,3.35
2017-06-08T01:23:49.051Z,2.60
2017-06-08T01:26:22.008Z,2.80
2017-06-08T01:28:54.744Z,2.80
2017-06-08T01:31:27.620Z,3.20
2017-06-08T01:34:00.809Z,3.10
2017-06-08T01:36:34.155Z,3.20
2017-06-08T01:39:06.977Z,3.20
2017-06-08T01:41:39.846Z,3.10
2017-06-08T01:44:13.306Z,3.00
2017-06-08T01:46:46.160Z,3.30
2017-06-08T01:49:19.567Z,2.90
2017-06-08T01:51:54.536Z,2.85
2017-06-08T01:54:27.787Z,3.33
2017-06-08T01:57:00.502Z,3.10
2017-06-08T01:59:33.135Z,2.80
2017-06-08T02:02:07.186Z,2.80
2017-06-08T02:04:40.403Z,3.10
2017-06-08T02:07:13.935Z,3.33
2017-06-08T02:09:46.654Z,2.78
2017-06-08T02:12:19.458Z,3.00
2017-06-08T02:14:52.970Z,2.65
2017-06-08T02:17:26.520Z,2.87
2017-06-08T02:19:59.873Z,3.30
2017-06-08T02:22:33.308Z,3.35
2017-06-08T02:25:06.066Z,2.70
2017-06-08T02:27:39.166Z,3.05
2017-06-08T02:30:11.959Z,2.87
2017-06-08T02:32:45.252Z,3.60
2017-06-08T02:35:18.362Z,2.70
2017-06-08T02:37:51.293Z,3.03
2017-06-08T02:40:23.919Z,3.90
2017-06-08T02:42:57.221Z,2.77
2017-06-08T02:45:30.303Z,2.95
2017-06-08T02:48:03.402Z,2.78
2017-06-08T02:50:36.734Z,2.80
2017-06-08T02:53:11.024Z,3.12
2017-06-08T02:55:43.824Z,3.30
2017-06-08T02:58:17.263Z,2.70
2017-06-08T03:00:50.156Z,2.85
2017-06-08T03:03:22.843Z,3.10
2017-06-08T03:05:55.612Z,3.30
2017-06-08T03:08:28.641Z,2.77
2017-06-08T03:11:00.919Z,2.58
2017-06-08T03:13:33.252Z,3.20
2017-06-08T03:16:05.531Z,2.92
2017-06-08T03:18:38.063Z,2.97
2017-06-08T03:21:10.520Z,2.80
2017-06-08T03:23:43.401Z,2.90
2017-06-08T03:26:16.330Z,3.00
2017-06-08T03:28:49.399Z,2.95
2017-06-08T03:31:22.712Z,2.80
2017-06-08T03:33:55.744Z,3.23
2017-06-08T03:36:28.480Z,3.05
2017-06-08T03:39:01.948Z,3.10
2017-06-08T03:41:34.213Z,2.70
2017-06-08T03:44:07.059Z,2.60
2017-06-08T03:46:40.062Z,3.33
2017-06-08T03:49:12.698Z,3.20
2017-06-08T03:51:45.187Z,3.20
2017-06-08T03:54:17.698Z,2.67
2017-06-08T03:56:50.271Z,3.35
2017-06-08T03:59:22.882Z,3.62
2017-06-08T04:01:56.190Z,3.30
2017-06-08T04:04:29.294Z,3.22
2017-06-08T04:07:01.838Z,2.33
2017-06-08T04:09:36.067Z,2.62
2017-06-08T04:12:08.947Z,3.00
2017-06-08T04:14:41.826Z,3.00
2017-06-08T04:17:16.124Z,3.20
2017-06-08T04:19:48.572Z,2.80
2017-06-08T04:22:20.956Z,3.60
2017-06-08T04:24:53.760Z,2.30
2017-06-08T04:27:26.519Z,3.30
2017-06-08T04:29:59.936Z,3.40
2017-06-08T04:32:33.160Z,2.90
2017-06-08T04:35:05.441Z,3.55
2017-06-08T04:37:38.340Z,2.62
2017-06-08T04:40:10.683Z,2.80
2017-06-08T04:42:42.926Z,3.00
2017-06-08T04:45:15.336Z,3.50
2017-06-08T04:47:48.215Z,3.92
2017-06-08T04:50:20.692Z,2.80
2017-06-08T04:52:53.003Z,2.60
2017-06-08T04:55:26.429Z,2.50
2017-06-08T04:57:59.525Z,3.03
2017-06-08T05:00:32.632Z,2.60
2017-06-08T05:03:06.012Z,2.90
2017-06-08T05:05:38.354Z,4.00
2017-06-08T05:08:10.628Z,2.60
2017-06-08T05:10:42.963Z,2.60
2017-06-08T05:13:15.326Z,2.50
2017-06-08T05:15:48.353Z,2.53
2017-06-08T05:18:20.725Z,2.70
2017-06-08T05:20:53.612Z,2.60
2017-06-08T05:23:26.289Z,2.90
2017-06-08T05:25:58.794Z,2.33
2017-06-08T05:28:31.485Z,2.53
2017-06-08T05:31:04.104Z,2.65
2017-06-08T05:33:36.425Z,3.30
2017-06-08T05:36:09.064Z,3.30
2017-06-08T05:38:41.767Z,2.95
2017-06-08T05:41:14.796Z,3.08
2017-06-08T05:43:47.211Z,3.90
2017-06-08T05:46:20.448Z,2.90
2017-06-08T05:48:53.372Z,2.90
2017-06-08T05:51:26.173Z,2.60
2017-06-08T05:53:58.423Z,2.90
2017-06-08T05:56:31.426Z,2.50
2017-06-08T05:59:04.291Z,2.50
2017-06-08T06:01:36.903Z,4.27
2017-06-08T06:04:09.301Z,2.67
2017-06-08T06:06:41.899Z,3.43
2017-06-08T06:09:14.832Z,3.72
2017-06-08T06:11:47.512Z,2.40
2017-06-08T06:14:19.840Z,3.20
2017-06-08T06:16:52.143Z,2.78
2017-06-08T06:19:24.852Z,2.87
2017-06-08T06:21:57.410Z,2.50
2017-06-08T06:24:29.719Z,2.60
2017-06-08T06:27:02.379Z,2.90
2017-06-08T06:29:34.748Z,3.30
2017-06-08T06:32:07.691Z,3.75
2017-06-08T06:34:40.140Z,2.92
2017-06-08T06:37:12.468Z,3.00
2017-06-08T06:39:45.614Z,3.20
2017-06-08T06:42:18.257Z,2.90
2017-06-08T06:44:50.790Z,3.53
2017-06-08T06:47:23.082Z,2.95
2017-06-08T06:49:55.920Z,2.70
2017-06-08T06:52:28.628Z,2.50
2017-06-08T06:55:01.031Z,3.80
2017-06-08T06:57:34.899Z,3.60
2017-06-08T07:00:07.751Z,3.00
2017-06-08T07:02:40.213Z,3.20
2017-06-08T07:05:12.475Z,3.10
2017-06-08T07:07:45.406Z,3.45
2017-06-08T07:10:21.241Z,3.62
2017-06-08T07:12:53.751Z,3.08
2017-06-08T07:15:26.435Z,3.33
2017-06-08T07:17:58.728Z,3.92
2017-06-08T07:20:31.250Z,3.50
2017-06-08T07:23:03.590Z,3.20
2017-06-08T07:25:35.908Z,4.10
2017-06-08T07:28:09.524Z,3.27
2017-06-08T07:30:43.020Z,4.05
2017-06-08T07:33:16.447Z,3.00
2017-06-08T07:35:49.149Z,2.78
2017-06-08T07:38:21.611Z,3.50
2017-06-08T07:40:54.247Z,2.87
2017-06-08T07:43:26.723Z,2.53
2017-06-08T07:45:59.008Z,3.75
2017-06-08T07:48:31.610Z,2.40
2017-06-08T07:51:03.963Z,2.70
2017-06-08T07:53:36.612Z,2.00
2017-06-08T07:56:10.012Z,2.75
2017-06-08T07:58:42.632Z,2.70
2017-06-08T08:01:25.347Z,3.57
2017-06-08T08:04:00.403Z,2.65
2017-06-08T08:06:32.820Z,2.92
2017-06-08T08:09:05.834Z,2.20
2017-06-08T08:11:39.758Z,3.70
2017-06-08T08:14:12.382Z,3.00
2017-06-08T08:16:45.338Z,3.40
2017-06-08T08:19:17.807Z,3.90
2017-06-08T08:21:50.120Z,4.20
2017-06-08T08:24:22.591Z,3.00
2017-06-08T08:26:54.920Z,3.62
2017-06-08T08:29:28.036Z,3.90
2017-06-08T08:32:01.398Z,3.40
2017-06-08T08:34:33.786Z,3.10
2017-06-08T08:37:06.869Z,3.25
2017-06-08T08:39:39.556Z,2.80
2017-06-08T08:42:12.022Z,3.20
2017-06-08T08:44:44.513Z,3.40
2017-06-08T08:47:17.951Z,2.83
2017-06-08T08:49:50.634Z,2.47
2017-06-08T08:52:23.309Z,2.20
2017-06-08T08:54:56.040Z,2.47
2017-06-08T08:57:28.810Z,3.45
2017-06-08T09:00:02.008Z,2.80
2017-06-08T09:02:35.298Z,3.40
2017-06-08T09:05:07.586Z,3.00
2017-06-08T09:07:40.930Z,3.10
2017-06-08T09:10:13.228Z,3.45
2017-06-08T09:12:46.077Z,4.43
2017-06-08T09:15:18.708Z,4.03
2017-06-08T09:17:52.160Z,4.30
2017-06-08T09:20:24.805Z,3.77
2017-06-08T09:22:57.529Z,4.57
2017-06-08T09:25:30.595Z,3.10
2017-06-08T09:28:02.997Z,3.35
2017-06-08T09:30:35.576Z,3.78
2017-06-08T09:33:08.412Z,3.22
2017-06-08T09:35:41.134Z,3.55
2017-06-08T09:38:13.604Z,4.40
2017-06-08T09:40:46.206Z,4.37
2017-06-08T09:43:18.587Z,5.30
2017-06-08T09:45:52.819Z,4.10
2017-06-08T09:49:49.121Z,4.62
2017-06-08T09:52:21.759Z,4.85
2017-06-08T09:54:54.211Z,4.57
2017-06-08T09:57:26.701Z,5.05
2017-06-08T09:59:59.481Z,6.00
2017-06-08T10:02:34.273Z,5.50
2017-06-08T10:05:07.345Z,4.95
2017-06-08T10:07:39.798Z,5.22
2017-06-08T10:10:12.145Z,4.80
2017-06-08T10:12:45.743Z,4.70
2017-06-08T10:15:18.717Z,4.75
2017-06-08T10:17:51.712Z,5.00
2017-06-08T10:20:24.342Z,5.30
2017-06-08T10:22:56.823Z,5.90
2017-06-08T10:25:29.481Z,5.22
2017-06-08T10:28:01.811Z,4.93
2017-06-08T10:30:34.295Z,4.78
2017-06-08T10:33:06.956Z,4.10
2017-06-08T10:35:39.860Z,3.75
2017-06-08T10:38:12.271Z,3.50
2017-06-08T10:43:27.472Z,5.20
2017-06-08T10:46:00.872Z,4.20
2017-06-08T10:48:33.620Z,3.75
2017-06-08T10:51:06.268Z,3.60
2017-06-08T10:53:39.183Z,3.90
2017-06-08T10:56:12.561Z,4.62
2017-06-08T10:58:45.055Z,4.30
2017-06-08T11:01:17.686Z,3.60
2017-06-08T11:03:51.048Z,3.10
2017-06-08T11:06:24.024Z,4.40
2017-06-08T11:08:56.408Z,3.92
2017-06-08T11:11:28.890Z,3.40
2017-06-08T11:14:01.263Z,4.20
2017-06-08T11:16:35.508Z,3.30
2017-06-08T11:19:08.440Z,3.60
2017-06-08T11:21:41.167Z,3.10
2017-06-08T11:24:13.519Z,3.20
2017-06-08T11:26:46.004Z,2.90
2017-06-08T11:29:19.271Z,4.20
2017-06-08T11:31:51.710Z,3.43
2017-06-08T11:34:24.287Z,2.60
2017-06-08T11:36:56.792Z,2.70
2017-06-08T11:39:29.311Z,3.35
2017-06-08T11:42:01.709Z,3.50
2017-06-08T11:44:34.820Z,4.35
2017-06-08T11:47:07.095Z,3.60
2017-06-08T11:49:39.564Z,3.50
2017-06-08T11:52:12.123Z,3.50
2017-06-08T11:54:44.940Z,3.60
2017-06-08T11:57:17.538Z,3.50
2017-06-08T11:59:49.877Z,2.40
2017-06-08T12:02:22.355Z,3.15
2017-06-08T12:04:55.294Z,3.87
2017-06-08T12:07:28.240Z,4.97
2017-06-08T12:10:00.628Z,4.13
2017-06-08T12:12:32.980Z,5.03
2017-06-08T12:15:05.578Z,4.15
2017-06-08T12:17:38.103Z,3.97
2017-06-08T12:20:10.727Z,4.57
2017-06-08T12:22:43.318Z,3.50
2017-06-08T12:25:16.025Z,2.70
2017-06-08T12:27:48.702Z,4.70
2017-06-08T12:30:23.650Z,3.90
2017-06-08T12:32:56.033Z,4.00
2017-06-08T12:35:28.619Z,3.30
2017-06-08T12:38:01.697Z,3.72
2017-06-08T12:40:34.032Z,4.20
2017-06-08T12:43:06.375Z,3.40
2017-06-08T12:45:39.115Z,4.25
2017-06-08T12:48:11.606Z,4.10
2017-06-08T12:50:45.200Z,3.28
2017-06-08T12:53:17.700Z,4.30
2017-06-08T12:55:53.419Z,4.62
2017-06-08T12:58:26.591Z,4.72
2017-06-08T13:01:00.320Z,4.43
2017-06-08T13:03:33.519Z,4.60
2017-06-08T13:06:06.384Z,4.00
2017-06-08T13:08:39.143Z,4.10
2017-06-08T13:11:12.174Z,4.55
2017-06-08T13:13:44.876Z,3.60
2017-06-08T13:16:17.331Z,3.97
2017-06-08T13:18:49.882Z,3.20
2017-06-08T13:21:22.629Z,3.10
2017-06-08T13:23:54.982Z,3.15
2017-06-08T13:26:27.718Z,3.97
2017-06-08T13:29:00.449Z,4.15
2017-06-08T13:31:32.982Z,4.00
2017-06-08T13:34:06.213Z,3.60
2017-06-08T13:36:39.312Z,4.82
2017-06-08T13:39:11.741Z,4.00
2017-06-08T13:41:45.187Z,4.50
2017-06-08T13:44:18.893Z,3.60
2017-06-08T13:46:52.045Z,4.12
2017-06-08T13:49:24.584Z,3.97
2017-06-08T13:51:57.222Z,3.60
2017-06-08T13:54:30.748Z,3.40
2017-06-08T13:57:03.956Z,2.83
2017-06-08T13:59:36.570Z,3.80
2017-06-08T14:02:09.089Z,3.92
2017-06-08T14:04:41.639Z,7.12
2017-06-08T14:07:15.019Z,3.67
2017-06-08T14:09:48.000Z,4.70
2017-06-08T14:12:21.031Z,3.67
2017-06-08T14:14:53.558Z,2.67
2017-06-08T14:17:26.012Z,3.50
2017-06-08T14:19:58.436Z,3.37
2017-06-08T14:22:37.754Z,3.80
2017-06-08T14:25:10.294Z,4.35
2017-06-08T14:27:43.493Z,3.50
2017-06-08T14:30:16.199Z,3.87
2017-06-08T14:32:48.956Z,4.20
2017-06-08T14:35:22.714Z,4.10
2017-06-08T14:40:27.496Z,5.70
2017-06-08T14:43:00.099Z,3.90
2017-06-08T14:45:32.666Z,3.85
2017-06-08T14:48:05.816Z,3.72
2017-06-08T14:50:38.854Z,5.05
2017-06-08T14:53:11.985Z,4.50
2017-06-08T14:55:44.955Z,3.33
2017-06-08T14:58:19.011Z,3.37
2017-06-08T15:00:51.681Z,3.90
2017-06-08T15:03:26.387Z,3.65
2017-06-08T15:06:00.869Z,4.40
2017-06-08T15:08:34.819Z,3.78
2017-06-08T15:11:07.223Z,3.40
2017-06-08T15:13:40.386Z,3.30
2017-06-08T15:16:13.841Z,4.20
2017-06-08T15:18:46.414Z,4.50
2017-06-08T15:21:19.761Z,3.57
2017-06-08T15:23:52.360Z,3.10
2017-06-08T15:26:24.739Z,3.58
2017-06-08T15:28:57.506Z,4.10
2017-06-08T15:31:30.126Z,5.55
2017-06-08T15:34:03.040Z,3.90
2017-06-08T15:36:35.860Z,5.50
2017-06-08T15:39:09.370Z,5.33
2017-06-08T15:41:42.113Z,4.12
2017-06-08T15:44:14.882Z,4.10
2017-06-08T15:46:47.643Z,3.70
2017-06-08T15:49:20.419Z,3.70
2017-06-08T15:51:52.835Z,4.03
2017-06-08T15:54:25.459Z,3.42
2017-06-08T15:56:58.144Z,3.17
2017-06-08T15:59:30.776Z,2.90
2017-06-08T16:02:03.644Z,4.20
2017-06-08T16:04:36.783Z,3.80
2017-06-08T16:07:10.091Z,3.65
2017-06-08T16:09:43.541Z,3.30
2017-06-08T16:12:17.954Z,5.25
2017-06-08T16:14:51.519Z,3.50
2017-06-08T16:17:24.360Z,3.28
2017-06-08T16:19:57.622Z,3.50
2017-06-08T16:22:30.814Z,3.35
2017-06-08T16:25:05.257Z,3.90
2017-06-08T16:27:38.126Z,2.90
2017-06-08T16:30:12.829Z,3.03
2017-06-08T16:32:45.743Z,3.72
2017-06-08T16:35:18.777Z,3.17
2017-06-08T16:37:51.733Z,3.78
2017-06-08T16:40:25.311Z,4.10
2017-06-08T16:42:58.082Z,3.00
2017-06-08T16:45:30.461Z,2.83
2017-06-08T16:48:03.842Z,3.50
2017-06-08T16:50:36.897Z,3.00
2017-06-08T16:53:10.095Z,3.10
2017-06-08T16:55:42.743Z,3.08
2017-06-08T16:58:15.508Z,3.28
2017-06-08T17:00:48.029Z,3.70
2017-06-08T17:03:20.879Z,5.13
2017-06-08T17:05:53.664Z,3.03
2017-06-08T17:08:26.563Z,2.58
2017-06-08T17:10:59.260Z,3.00
2017-06-08T17:13:32.212Z,3.03
2017-06-08T17:16:04.986Z,2.60
2017-06-08T17:18:37.505Z,2.30
2017-06-08T17:21:10.207Z,3.03
2017-06-08T17:23:43.978Z,3.83
2017-06-08T17:26:18.830Z,3.50
2017-06-08T17:28:53.503Z,3.67
2017-06-08T17:31:26.052Z,3.30
2017-06-08T17:34:00.437Z,3.77
2017-06-08T17:36:33.760Z,3.75
2017-06-08T17:39:07.849Z,3.40
2017-06-08T17:41:40.480Z,3.35
2017-06-08T17:44:12.844Z,3.55
2017-06-08T17:46:45.547Z,3.92
2017-06-08T17:49:19.479Z,3.80
2017-06-08T17:51:52.347Z,3.63
2017-06-08T17:54:26.437Z,3.85
2017-06-08T17:56:59.107Z,4.23
2017-06-08T17:59:31.797Z,4.12
2017-06-08T18:02:05.077Z,4.00
2017-06-08T18:04:39.448Z,4.72
2017-06-08T18:07:12.105Z,4.53
2017-06-08T18:09:45.261Z,4.45
2017-06-08T18:12:18.392Z,5.00
2017-06-08T18:14:51.070Z,4.80
2017-06-08T18:17:23.550Z,3.75
2017-06-08T18:19:58.126Z,5.15
2017-06-08T18:22:30.836Z,4.35
2017-06-08T18:25:03.642Z,3.90
2017-06-08T18:27:37.024Z,3.57
2017-06-08T18:30:11.995Z,4.50
2017-06-08T18:32:48.222Z,5.22
2017-06-08T18:35:20.929Z,3.83
2017-06-08T18:37:53.601Z,3.90
2017-06-08T18:40:27.531Z,4.50
2017-06-08T18:43:00.805Z,4.37
2017-06-08T18:45:33.321Z,3.30
2017-06-08T18:48:06.209Z,3.80
2017-06-08T18:50:39.158Z,3.30
2017-06-08T18:53:13.347Z,4.65
2017-06-08T18:55:46.956Z,3.97
2017-06-08T18:58:20.551Z,3.53
2017-06-08T19:00:54.103Z,3.90
2017-06-08T19:03:27.574Z,4.18
2017-06-08T19:06:00.693Z,4.30
2017-06-08T19:08:33.390Z,3.40
2017-06-08T19:11:06.506Z,3.70
2017-06-08T19:13:39.854Z,4.43
2017-06-08T19:16:12.446Z,6.10
2017-06-08T19:18:45.526Z,6.05
2017-06-08T19:21:18.160Z,5.53
2017-06-08T19:23:50.651Z,5.32
2017-06-08T19:26:23.496Z,6.60
2017-06-08T19:28:56.254Z,5.20
2017-06-08T19:31:28.646Z,4.93
2017-06-08T19:34:01.607Z,5.12
2017-06-08T19:36:34.637Z,5.30
2017-06-08T19:39:07.195Z,5.30
2017-06-08T19:41:40.050Z,6.20
2017-06-08T19:44:12.641Z,5.60
2017-06-08T19:46:45.120Z,4.60
2017-06-08T19:49:17.511Z,5.00
2017-06-08T19:51:50.153Z,4.32
2017-06-08T19:54:24.404Z,4.30
2017-06-08T19:56:56.865Z,4.53
2017-06-08T19:59:29.302Z,4.22
2017-06-08T20:02:02.085Z,5.70
2017-06-08T20:04:35.783Z,5.25
2017-06-08T20:07:09.850Z,4.93
2017-06-08T20:09:44.363Z,5.15
2017-06-08T20:12:18.475Z,6.10
2017-06-08T20:14:51.204Z,5.03
2017-06-08T20:17:23.573Z,5.00
2017-06-08T20:19:56.285Z,5.70
2017-06-08T20:22:29.258Z,5.40
2017-06-08T20:25:02.618Z,6.37
2017-06-08T20:27:35.168Z,6.85
2017-06-08T20:30:07.590Z,4.40
2017-06-08T20:32:40.676Z,6.30
2017-06-08T20:35:13.536Z,6.40
2017-06-08T20:37:46.439Z,5.10
2017-06-08T20:40:19.563Z,5.20
2017-06-08T20:42:52.999Z,4.63
2017-06-08T20:45:25.735Z,5.80
2017-06-08T20:47:58.507Z,5.03
2017-06-08T20:50:30.987Z,5.47
2017-06-08T20:53:04.427Z,5.53
2017-06-08T20:55:37.644Z,5.85
2017-06-08T20:58:10.050Z,5.30
2017-06-08T21:00:42.839Z,4.78
2017-06-08T21:03:15.860Z,5.30
2017-06-08T21:05:49.092Z,4.17
2017-06-08T21:08:21.829Z,6.03
2017-06-08T21:10:55.011Z,6.70
2017-06-08T21:13:27.414Z,7.15
2017-06-08T21:15:59.955Z,4.75
2017-06-08T21:18:32.456Z,4.40
2017-06-08T21:21:05.231Z,4.25
2017-06-08T21:23:37.613Z,4.32
2017-06-08T21:26:10.029Z,6.17
2017-06-08T21:28:42.583Z,3.90
2017-06-08T21:31:15.575Z,5.20
2017-06-08T21:33:48.824Z,5.30
2017-06-08T21:36:21.828Z,4.30
2017-06-08T21:38:55.300Z,4.95
2017-06-08T21:41:28.234Z,4.10
2017-06-08T21:44:01.826Z,5.33
2017-06-08T21:46:35.325Z,3.90
2017-06-08T21:49:07.901Z,4.68
2017-06-08T21:51:42.267Z,5.10
2017-06-08T21:54:15.271Z,4.10
2017-06-08T21:56:49.025Z,4.83
2017-06-08T21:59:21.462Z,3.83
2017-06-08T22:01:54.005Z,3.92
2017-06-08T22:04:26.493Z,3.35
2017-06-08T22:06:59.826Z,3.70
2017-06-08T22:09:32.630Z,3.95
2017-06-08T22:12:05.382Z,3.42
2017-06-08T22:14:37.918Z,3.30
2017-06-08T22:17:10.980Z,3.80
2017-06-08T22:19:43.503Z,3.42
2017-06-08T22:22:15.987Z,2.70
2017-06-08T22:24:48.623Z,3.00
2017-06-08T22:27:22.610Z,3.30
2017-06-08T22:29:55.697Z,3.47
2017-06-08T22:32:29.685Z,3.90
2017-06-08T22:35:02.535Z,3.40
2017-06-08T22:37:35.743Z,3.60
2017-06-08T22:40:08.608Z,4.30
2017-06-08T22:42:42.617Z,4.10
2017-06-08T22:45:14.988Z,4.10
2017-06-08T22:47:48.375Z,3.20
2017-06-08T22:50:20.770Z,4.12
2017-06-08T22:52:53.151Z,3.20
2017-06-08T22:55:25.966Z,3.90
2017-06-08T22:57:59.192Z,3.17
2017-06-08T23:00:33.097Z,2.80
2017-06-08T23:03:07.046Z,3.92
2017-06-08T23:05:41.415Z,3.72
2017-06-08T23:08:14.503Z,3.20
2017-06-08T23:10:47.716Z,2.80
2017-06-08T23:13:20.955Z,3.10
2017-06-08T23:15:53.927Z,2.80
2017-06-08T23:18:27.226Z,3.20
2017-06-08T23:21:00.060Z,3.00
2017-06-08T23:23:32.918Z,3.30
2017-06-08T23:26:06.126Z,3.30
2017-06-08T23:28:39.434Z,3.70
2017-06-08T23:31:12.524Z,3.20
2017-06-08T23:33:45.506Z,3.10
2017-06-08T23:36:18.548Z,3.33
2017-06-08T23:38:51.923Z,2.80
2017-06-08T23:41:24.899Z,2.50
2017-06-08T23:43:58.371Z,2.70
2017-06-08T23:46:31.283Z,2.80
2017-06-08T23:49:04.665Z,3.17
2017-06-08T23:51:38.015Z,3.10
2017-06-08T23:54:11.482Z,2.73
2017-06-08T23:56:44.699Z,2.83
2017-06-08T23:59:18.028Z,2.95
